createdAt,value
2022-10-09T00:00:01.854Z,12.53
2022-10-09T00:05:30.778Z,11.90
2022-10-09T00:07:57.831Z,11.57
2022-10-09T00:10:26.986Z,13.27
2022-10-09T00:12:54.107Z,12.03
2022-10-09T00:15:21.103Z,13.83
2022-10-09T00:17:48.298Z,10.33
2022-10-09T00:20:16.172Z,14.27
2022-10-09T00:22:46.022Z,10.50
2022-10-09T00:25:13.401Z,10.50
2022-10-09T00:27:40.225Z,12.60
2022-10-09T00:30:07.679Z,11.13
2022-10-09T00:32:34.828Z,7.37
2022-10-09T00:37:53.939Z,11.83
2022-10-09T00:40:20.822Z,8.67
2022-10-09T00:43:43.760Z,9.20
2022-10-09T00:46:48.649Z,11.73
2022-10-09T00:49:37.160Z,11.17
2022-10-09T00:52:07.372Z,9.30
2022-10-09T00:54:37.373Z,10.60
2022-10-09T00:57:04.205Z,10.50
2022-10-09T00:59:31.960Z,11.07
2022-10-09T01:01:58.967Z,10.27
2022-10-09T01:04:32.537Z,8.50
2022-10-09T01:07:24.257Z,8.97
2022-10-09T01:09:59.544Z,10.73
2022-10-09T01:20:10.100Z,9.73
2022-10-09T01:23:03.280Z,12.87
2022-10-09T01:26:15.735Z,14.37
2022-10-09T01:28:59.459Z,11.17
2022-10-09T01:31:44.900Z,10.73
2022-10-09T01:34:16.739Z,11.97
2022-10-09T01:36:57.939Z,12.43
2022-10-09T01:39:26.812Z,13.57
2022-10-09T01:41:54.934Z,13.00
2022-10-09T01:54:43.755Z,15.60
2022-10-09T01:57:23.634Z,12.77
2022-10-09T01:59:53.312Z,11.93
2022-10-09T02:02:21.509Z,12.47
2022-10-09T02:04:55.271Z,13.50
2022-10-09T02:08:05.772Z,13.23
2022-10-09T02:13:18.699Z,15.67
2022-10-09T02:17:01.367Z,11.10
2022-10-09T02:20:33.339Z,14.43
2022-10-09T02:23:04.437Z,15.60
2022-10-09T02:25:31.692Z,14.40
2022-10-09T02:27:58.834Z,12.37
2022-10-09T02:30:44.822Z,16.83
2022-10-09T02:33:12.017Z,14.70
2022-10-09T02:39:27.409Z,10.80
2022-10-09T02:41:57.353Z,15.40
2022-10-09T02:47:16.520Z,17.70
2022-10-09T02:49:43.384Z,16.80
2022-10-09T02:52:10.446Z,17.33
2022-10-09T02:54:40.417Z,14.57
2022-10-09T02:57:07.260Z,19.47
2022-10-09T03:05:36.475Z,15.10
2022-10-09T03:17:00.963Z,12.20
2022-10-09T03:30:47.221Z,18.77
2022-10-09T03:36:04.483Z,17.03
2022-10-09T03:38:31.349Z,15.77
2022-10-09T03:42:01.173Z,19.63
2022-10-09T03:49:55.451Z,19.47
2022-10-09T03:52:59.117Z,16.07
2022-10-09T03:58:19.064Z,18.23
2022-10-09T04:00:46.707Z,18.43
2022-10-09T04:03:13.558Z,17.37
2022-10-09T04:05:40.474Z,14.93
2022-10-09T04:08:39.751Z,16.03
2022-10-09T04:11:39.620Z,18.07
2022-10-09T04:14:06.558Z,17.83
2022-10-09T04:16:33.542Z,19.93
2022-10-09T04:19:00.440Z,16.97
2022-10-09T04:21:33.994Z,18.63
2022-10-09T04:24:00.954Z,18.97
2022-10-09T04:26:34.425Z,19.60
2022-10-09T04:29:36.348Z,22.07
2022-10-09T04:32:39.596Z,18.60
2022-10-09T04:35:37.469Z,20.10
2022-10-09T04:38:05.731Z,24.23
2022-10-09T04:40:36.607Z,19.13
2022-10-09T04:43:06.037Z,18.63
2022-10-09T04:45:53.309Z,19.27
2022-10-09T04:48:23.478Z,18.90
2022-10-09T04:50:50.308Z,20.13
2022-10-09T04:53:17.571Z,16.77
2022-10-09T04:55:45.119Z,19.70
2022-10-09T04:58:13.303Z,16.93
2022-10-09T05:00:49.453Z,20.00
2022-10-09T05:03:16.268Z,22.43
2022-10-09T05:05:43.082Z,20.07
2022-10-09T05:08:09.966Z,16.33
2022-10-09T05:10:42.829Z,18.20
2022-10-09T05:13:10.069Z,16.07
2022-10-09T05:15:39.678Z,16.70
2022-10-09T05:18:06.610Z,16.47
2022-10-09T05:28:59.443Z,15.23
2022-10-09T05:31:30.350Z,16.87
2022-10-09T05:34:00.144Z,15.90
2022-10-09T05:36:27.191Z,21.47
2022-10-09T05:41:36.950Z,18.20
2022-10-09T05:47:01.372Z,18.00
2022-10-09T05:49:28.306Z,20.77
2022-10-09T05:51:55.975Z,19.03
2022-10-09T05:54:22.784Z,17.37
2022-10-09T05:56:49.791Z,19.50
2022-10-09T05:59:21.809Z,17.37
2022-10-09T06:01:51.441Z,18.10
2022-10-09T06:04:20.996Z,19.87
2022-10-09T06:06:48.852Z,17.27
2022-10-09T06:09:19.610Z,17.40
2022-10-09T06:11:49.089Z,19.63
2022-10-09T06:20:31.573Z,17.33
2022-10-09T06:29:46.656Z,18.77
2022-10-09T06:32:14.116Z,15.17
2022-10-09T06:34:43.789Z,14.97
2022-10-09T06:37:10.594Z,15.37
2022-10-09T06:42:24.093Z,17.07
2022-10-09T06:44:50.897Z,17.37
2022-10-09T06:47:17.857Z,13.47
2022-10-09T06:49:44.649Z,15.23
2022-10-09T07:02:25.526Z,12.33
2022-10-09T07:12:59.460Z,14.77
2022-10-09T07:23:16.949Z,13.90
2022-10-09T07:37:15.040Z,16.27
2022-10-09T07:52:39.087Z,15.23
2022-10-09T07:58:35.798Z,14.70
2022-10-09T08:01:07.938Z,17.03
2022-10-09T08:06:43.263Z,14.50
2022-10-09T08:12:45.839Z,13.63
2022-10-09T08:35:50.470Z,16.43
2022-10-09T08:38:44.932Z,11.27
2022-10-09T08:41:33.067Z,14.07
2022-10-09T08:44:14.019Z,12.73
2022-10-09T08:46:57.149Z,13.20
2022-10-09T08:49:37.641Z,12.80
2022-10-09T08:52:13.619Z,13.30
2022-10-09T08:54:40.763Z,12.10
2022-10-09T08:57:13.975Z,15.27
2022-10-09T08:59:40.896Z,11.90
2022-10-09T09:02:08.106Z,11.73
2022-10-09T09:15:28.728Z,12.77
2022-10-09T09:18:08.476Z,12.67
2022-10-09T09:24:41.439Z,11.10
2022-10-09T09:27:31.398Z,9.27
2022-10-09T09:36:38.878Z,9.67
2022-10-09T09:41:55.584Z,8.67
2022-10-09T09:48:50.321Z,11.30
2022-10-09T09:58:35.049Z,10.33
2022-10-09T10:01:44.646Z,9.67
2022-10-09T10:07:07.139Z,12.23
2022-10-09T10:09:34.188Z,13.70
2022-10-09T10:12:03.946Z,12.20
2022-10-09T10:14:32.117Z,11.37
2022-10-09T10:17:03.166Z,12.50
2022-10-09T10:19:38.905Z,11.20
2022-10-09T10:22:29.512Z,10.53
2022-10-09T10:25:06.753Z,8.90
2022-10-09T10:28:17.344Z,11.03
2022-10-09T10:30:44.665Z,9.33
2022-10-09T10:33:26.506Z,9.90
2022-10-09T10:35:55.310Z,9.67
2022-10-09T10:38:55.316Z,10.20
2022-10-09T10:41:35.486Z,12.97
2022-10-09T10:45:16.664Z,10.47
2022-10-09T10:48:05.010Z,11.77
2022-10-09T10:50:41.140Z,10.43
2022-10-09T10:53:46.622Z,12.70
2022-10-09T10:56:28.724Z,11.77
2022-10-09T10:59:21.435Z,11.87
2022-10-09T11:02:32.605Z,11.37
2022-10-09T11:05:11.733Z,12.07
2022-10-09T11:07:59.933Z,10.47
2022-10-09T11:10:54.514Z,10.27
2022-10-09T11:13:39.442Z,10.13
2022-10-09T11:16:43.513Z,11.03
2022-10-09T11:19:29.272Z,10.90
2022-10-09T11:22:26.400Z,10.23
2022-10-09T11:25:13.471Z,9.67
2022-10-09T11:28:25.296Z,8.50
2022-10-09T11:31:06.446Z,10.07
2022-10-09T11:33:58.552Z,11.30
2022-10-09T11:36:51.950Z,10.90
2022-10-09T11:39:24.717Z,12.13
2022-10-09T11:41:59.871Z,13.13
2022-10-09T11:44:49.469Z,13.43
2022-10-09T11:47:31.169Z,13.10
2022-10-09T11:53:30.038Z,10.60
2022-10-09T11:56:19.069Z,9.57
2022-10-09T11:59:04.210Z,10.43
2022-10-09T12:01:47.553Z,13.07
2022-10-09T12:04:20.888Z,7.97
2022-10-09T12:07:00.812Z,9.93
2022-10-09T12:09:41.926Z,7.07
2022-10-09T12:12:22.433Z,9.63
2022-10-09T12:14:52.196Z,6.87
2022-10-09T12:17:22.310Z,8.30
2022-10-09T12:20:00.732Z,7.20
2022-10-09T12:22:56.428Z,7.60
2022-10-09T12:25:42.519Z,6.67
2022-10-09T12:28:30.245Z,7.47
2022-10-09T12:31:07.130Z,6.23
2022-10-09T12:34:12.029Z,7.50
2022-10-09T12:36:38.841Z,6.30
2022-10-09T12:39:14.726Z,5.23
2022-10-09T12:41:52.367Z,5.70
2022-10-09T12:44:32.507Z,4.33
2022-10-09T12:47:06.391Z,4.10
2022-10-09T12:49:33.609Z,5.07
2022-10-09T12:52:04.234Z,3.83
2022-10-09T12:54:31.751Z,4.57
2022-10-09T12:57:04.898Z,5.43
2022-10-09T12:59:34.778Z,7.20
2022-10-09T13:02:02.681Z,7.17
2022-10-09T13:04:32.340Z,6.60
2022-10-09T13:07:20.005Z,6.87
2022-10-09T13:09:51.800Z,8.10
2022-10-09T13:12:25.488Z,6.23
2022-10-09T13:14:52.449Z,6.80
2022-10-09T13:17:35.135Z,8.17
2022-10-09T13:20:12.746Z,9.20
2022-10-09T13:22:40.096Z,7.47
2022-10-09T13:25:10.732Z,6.80
2022-10-09T13:27:39.330Z,7.53
2022-10-09T13:30:07.190Z,6.20
2022-10-09T13:32:34.087Z,7.80
2022-10-09T13:35:00.853Z,8.87
2022-10-09T13:37:28.071Z,8.33
2022-10-09T13:39:57.082Z,6.77
2022-10-09T13:42:26.991Z,8.10
2022-10-09T13:44:54.654Z,7.27
2022-10-09T13:47:24.385Z,8.10
2022-10-09T13:49:52.070Z,7.13
2022-10-09T13:52:18.967Z,15.00
2022-10-09T13:54:46.298Z,7.53
2022-10-09T13:57:33.593Z,7.40
2022-10-09T14:00:10.826Z,8.47
2022-10-09T14:02:38.001Z,11.37
2022-10-09T14:05:05.194Z,7.33
2022-10-09T14:07:32.104Z,7.87
2022-10-09T14:09:59.598Z,7.90
2022-10-09T14:12:26.684Z,7.77
2022-10-09T14:14:54.293Z,6.90
2022-10-09T14:17:30.777Z,9.63
2022-10-09T14:19:57.689Z,9.70
2022-10-09T14:22:24.508Z,9.63
2022-10-09T14:24:51.309Z,8.33
2022-10-09T14:27:18.102Z,9.40
2022-10-09T14:29:44.857Z,8.07
2022-10-09T14:32:11.647Z,7.33
2022-10-09T14:34:39.147Z,9.63
2022-10-09T14:37:18.378Z,9.97
2022-10-09T14:39:46.823Z,8.80
2022-10-09T14:42:13.704Z,7.53
2022-10-09T14:44:42.508Z,10.67
2022-10-09T14:47:09.453Z,9.93
2022-10-09T14:49:36.367Z,9.93
2022-10-09T14:52:03.175Z,11.70
2022-10-09T14:54:29.993Z,9.30
2022-10-09T14:56:56.931Z,9.27
2022-10-09T14:59:24.660Z,8.83
2022-10-09T15:01:54.398Z,10.07
2022-10-09T15:04:21.202Z,9.00
2022-10-09T15:06:48.016Z,10.67
2022-10-09T15:09:14.976Z,11.20
2022-10-09T15:11:41.817Z,10.10
2022-10-09T15:14:08.989Z,9.10
2022-10-09T15:16:36.005Z,10.27
2022-10-09T15:19:04.564Z,9.17
2022-10-09T15:21:33.977Z,11.47
2022-10-09T15:24:01.880Z,12.37
2022-10-09T15:26:35.280Z,9.97
2022-10-09T15:29:04.957Z,10.37
2022-10-09T15:31:37.491Z,8.40
2022-10-09T15:34:05.336Z,11.10
2022-10-09T15:36:35.528Z,10.80
2022-10-09T15:39:05.918Z,12.17
2022-10-09T15:41:34.952Z,10.23
2022-10-09T15:44:07.859Z,12.60
2022-10-09T15:46:35.027Z,10.13
2022-10-09T15:49:01.911Z,12.10
2022-10-09T15:51:33.085Z,11.57
2022-10-09T15:54:01.361Z,12.80
2022-10-09T15:56:29.169Z,13.87
2022-10-09T15:58:58.533Z,13.17
2022-10-09T16:01:31.514Z,12.53
2022-10-09T16:03:58.433Z,15.70
2022-10-09T16:06:25.915Z,10.87
2022-10-09T16:08:56.667Z,11.80
2022-10-09T16:11:26.294Z,11.33
2022-10-09T16:13:54.857Z,13.80
2022-10-09T16:16:24.219Z,12.57
2022-10-09T16:18:51.964Z,12.60
2022-10-09T16:21:36.476Z,11.67
2022-10-09T16:30:41.165Z,12.27
2022-10-09T16:33:12.375Z,12.63
2022-10-09T16:35:39.887Z,11.97
2022-10-09T16:38:07.132Z,11.53
2022-10-09T16:41:03.194Z,12.17
2022-10-09T16:43:20.829Z,14.40
2022-10-09T16:45:48.318Z,13.87
2022-10-09T16:48:16.039Z,13.50
2022-10-09T16:50:43.695Z,13.87
2022-10-09T16:53:10.579Z,13.60
2022-10-09T16:55:37.485Z,12.03
2022-10-09T16:58:04.887Z,13.43
2022-10-09T17:00:31.905Z,13.50
2022-10-09T17:02:59.033Z,11.13
2022-10-09T17:05:29.208Z,14.77
2022-10-09T17:07:56.099Z,11.47
2022-10-09T17:10:23.226Z,14.53
2022-10-09T17:12:50.163Z,15.27
2022-10-09T17:15:17.372Z,11.40
2022-10-09T17:17:44.413Z,13.00
2022-10-09T17:20:12.974Z,14.73
2022-10-09T17:22:40.093Z,13.50
2022-10-09T17:25:10.395Z,14.93
2022-10-09T17:27:37.386Z,12.70
2022-10-09T17:30:04.925Z,17.03
2022-10-09T17:32:31.783Z,14.73
2022-10-09T17:35:19.118Z,20.00
2022-10-09T17:37:57.927Z,15.60
2022-10-09T17:40:41.051Z,19.87
2022-10-09T17:43:08.885Z,19.27
2022-10-09T17:45:40.888Z,17.10
2022-10-09T17:48:09.080Z,16.43
2022-10-09T17:50:36.923Z,16.47
2022-10-09T17:53:04.570Z,14.50
2022-10-09T17:55:31.720Z,16.80
2022-10-09T17:57:58.572Z,17.97
2022-10-09T18:00:25.453Z,18.73
2022-10-09T18:02:52.329Z,16.60
2022-10-09T18:05:19.324Z,17.23
2022-10-09T18:07:46.143Z,20.97
2022-10-09T18:10:19.886Z,17.13
2022-10-09T18:12:46.997Z,17.97
2022-10-09T18:15:14.630Z,18.40
2022-10-09T18:17:41.478Z,20.60
2022-10-09T18:20:08.892Z,19.90
2022-10-09T18:22:37.887Z,20.10
2022-10-09T18:25:06.095Z,23.17
2022-10-09T18:27:33.151Z,20.97
2022-10-09T18:30:00.447Z,22.97
2022-10-09T18:32:27.517Z,23.93
2022-10-09T18:34:54.273Z,25.47
2022-10-09T18:37:21.299Z,26.40
2022-10-09T18:39:48.788Z,21.63
2022-10-09T18:42:15.668Z,21.57
2022-10-09T18:44:45.548Z,23.33
2022-10-09T18:49:43.392Z,23.80
2022-10-09T18:52:11.602Z,24.07
2022-10-09T18:54:40.277Z,27.90
2022-10-09T18:57:07.392Z,27.50
2022-10-09T18:59:37.328Z,24.00
2022-10-09T19:02:04.416Z,26.73
2022-10-09T19:04:40.469Z,22.50
2022-10-09T19:07:07.455Z,26.50
2022-10-09T19:09:43.686Z,27.33
2022-10-09T19:15:12.285Z,25.40
2022-10-09T19:17:56.221Z,27.40
2022-10-09T19:23:34.198Z,27.10
2022-10-09T19:26:01.262Z,26.40
2022-10-09T19:28:46.171Z,29.00
2022-10-09T19:31:14.083Z,25.67
2022-10-09T19:36:56.006Z,31.37
2022-10-09T19:39:23.012Z,27.37
2022-10-09T19:41:51.225Z,28.00
2022-10-09T19:44:18.912Z,30.63
2022-10-09T19:49:33.954Z,27.37
2022-10-09T19:52:00.900Z,25.40
2022-10-09T19:54:27.864Z,29.07
2022-10-09T20:02:32.657Z,28.30
2022-10-09T20:04:59.534Z,29.33
2022-10-09T20:07:35.781Z,27.90
2022-10-09T20:10:02.813Z,30.20
2022-10-09T20:12:32.411Z,33.37
2022-10-09T20:14:59.620Z,30.47
2022-10-09T20:17:26.839Z,34.67
2022-10-09T20:19:56.437Z,29.90
2022-10-09T20:22:23.384Z,28.97
2022-10-09T20:24:53.390Z,35.23
2022-10-09T20:27:32.475Z,29.47
2022-10-09T20:29:59.744Z,29.60
2022-10-09T20:32:26.650Z,33.73
2022-10-09T20:35:03.655Z,32.53
2022-10-09T20:37:42.681Z,32.63
2022-10-09T20:40:09.849Z,34.97
2022-10-09T20:42:49.359Z,37.07
2022-10-09T20:45:31.933Z,36.33
2022-10-09T20:47:58.831Z,34.23
2022-10-09T20:50:25.770Z,37.83
2022-10-09T20:52:52.815Z,33.00
2022-10-09T20:55:34.691Z,36.07
2022-10-09T20:58:22.850Z,34.53
2022-10-09T21:00:49.737Z,35.07
2022-10-09T21:03:26.081Z,32.27
2022-10-09T21:09:20.744Z,32.10
2022-10-09T21:11:50.763Z,34.50
2022-10-09T21:14:17.622Z,32.80
2022-10-09T21:16:44.517Z,32.73
2022-10-09T21:19:20.756Z,32.03
2022-10-09T21:21:51.040Z,32.63
2022-10-09T21:24:18.296Z,30.63
2022-10-09T21:26:47.413Z,31.27
2022-10-09T21:29:14.722Z,31.87
2022-10-09T21:31:42.585Z,31.93
2022-10-09T21:34:09.470Z,29.67
2022-10-09T21:36:36.506Z,29.63
2022-10-09T21:39:05.073Z,29.47
2022-10-09T21:41:33.077Z,34.87
2022-10-09T21:44:00.705Z,29.07
2022-10-09T21:46:27.650Z,27.70
2022-10-09T21:48:54.509Z,32.30
2022-10-09T21:51:21.854Z,30.73
2022-10-09T21:53:48.748Z,33.57
2022-10-09T21:56:17.449Z,31.83
2022-10-09T21:58:48.760Z,32.93
2022-10-09T22:01:16.358Z,30.10
2022-10-09T22:03:43.210Z,35.20
2022-10-09T22:06:17.759Z,28.93
2022-10-09T22:08:50.445Z,28.87
2022-10-09T22:11:18.089Z,30.13
2022-10-09T22:13:47.849Z,29.30
2022-10-09T22:16:15.883Z,31.70
2022-10-09T22:18:48.571Z,29.77
2022-10-09T22:21:29.011Z,27.30
2022-10-09T22:24:00.334Z,28.00
2022-10-09T22:29:16.277Z,31.20
2022-10-09T22:31:43.723Z,27.40
2022-10-09T22:34:28.970Z,29.87
2022-10-09T22:36:55.878Z,27.87
2022-10-09T22:39:22.929Z,29.83
2022-10-09T22:41:49.765Z,27.33
2022-10-09T22:44:16.570Z,28.80
2022-10-09T22:46:44.971Z,26.70
2022-10-09T22:49:54.762Z,28.13
2022-10-09T22:52:25.006Z,30.83
2022-10-09T22:54:56.691Z,27.47
2022-10-09T23:02:56.350Z,28.67
2022-10-09T23:08:59.421Z,29.50
2022-10-09T23:11:38.077Z,30.30
2022-10-09T23:14:05.887Z,29.30
2022-10-09T23:16:33.562Z,27.30
2022-10-09T23:19:06.173Z,25.80
2022-10-09T23:21:34.495Z,27.33
2022-10-09T23:24:01.394Z,27.60
2022-10-09T23:26:30.964Z,29.07
2022-10-09T23:29:00.717Z,26.60
2022-10-09T23:31:28.115Z,26.43
2022-10-09T23:33:55.690Z,28.73
2022-10-09T23:36:25.664Z,26.70
2022-10-09T23:38:52.832Z,27.37
2022-10-09T23:41:22.051Z,29.17
2022-10-09T23:43:49.219Z,27.37
2022-10-09T23:46:20.148Z,27.90
2022-10-09T23:48:48.308Z,28.00
2022-10-09T23:51:16.053Z,29.90
2022-10-09T23:53:43.781Z,28.43
2022-10-09T23:56:23.241Z,28.60
2022-10-09T23:58:50.772Z,26.40
